sensor_id;sensor_type;location;lat;lon;timestamp;P1;durP1;ratioP1;P2;durP2;ratioP2
67500;SDS011;54349;52.528;19.760;2023-04-24T00:00:29;8.10;;;4.60;;
67500;SDS011;54349;52.528;19.760;2023-04-24T00:03:18;6.80;;;4.00;;
67500;SDS011;54349;52.528;19.760;2023-04-24T00:05:49;6.70;;;3.80;;
67500;SDS011;54349;52.528;19.760;2023-04-24T00:08:17;7.50;;;4.30;;
67500;SDS011;54349;52.528;19.760;2023-04-24T00:10:46;8.20;;;4.20;;
67500;SDS011;54349;52.528;19.760;2023-04-24T00:13:14;7.80;;;4.20;;
67500;SDS011;54349;52.528;19.760;2023-04-24T00:15:43;6.30;;;3.60;;
67500;SDS011;54349;52.528;19.760;2023-04-24T00:18:11;8.20;;;4.10;;
67500;SDS011;54349;52.528;19.760;2023-04-24T00:20:39;6.00;;;3.90;;
67500;SDS011;54349;52.528;19.760;2023-04-24T00:23:07;6.50;;;4.00;;
67500;SDS011;54349;52.528;19.760;2023-04-24T00:25:36;6.60;;;4.10;;
67500;SDS011;54349;52.528;19.760;2023-04-24T00:28:04;5.50;;;3.70;;
67500;SDS011;54349;52.528;19.760;2023-04-24T00:30:32;6.00;;;3.90;;
67500;SDS011;54349;52.528;19.760;2023-04-24T00:33:00;7.00;;;4.20;;
67500;SDS011;54349;52.528;19.760;2023-04-24T00:35:29;7.40;;;4.10;;
67500;SDS011;54349;52.528;19.760;2023-04-24T00:37:57;7.00;;;4.20;;
67500;SDS011;54349;52.528;19.760;2023-04-24T00:40:27;7.00;;;4.10;;
67500;SDS011;54349;52.528;19.760;2023-04-24T00:42:56;6.30;;;4.00;;
67500;SDS011;54349;52.528;19.760;2023-04-24T00:45:25;6.60;;;3.90;;
67500;SDS011;54349;52.528;19.760;2023-04-24T00:47:54;6.80;;;4.40;;
67500;SDS011;54349;52.528;19.760;2023-04-24T00:50:23;6.10;;;3.90;;
67500;SDS011;54349;52.528;19.760;2023-04-24T00:52:53;6.60;;;4.10;;
67500;SDS011;54349;52.528;19.760;2023-04-24T00:55:21;7.30;;;4.20;;
67500;SDS011;54349;52.528;19.760;2023-04-24T00:57:50;7.00;;;4.50;;
67500;SDS011;54349;52.528;19.760;2023-04-24T01:00:19;6.60;;;4.00;;
67500;SDS011;54349;52.528;19.760;2023-04-24T01:02:48;6.90;;;4.00;;
67500;SDS011;54349;52.528;19.760;2023-04-24T01:05:18;7.20;;;4.50;;
67500;SDS011;54349;52.528;19.760;2023-04-24T01:07:47;7.00;;;4.10;;
67500;SDS011;54349;52.528;19.760;2023-04-24T01:10:17;7.60;;;4.40;;
67500;SDS011;54349;52.528;19.760;2023-04-24T01:12:46;5.90;;;3.90;;
67500;SDS011;54349;52.528;19.760;2023-04-24T01:15:14;7.20;;;4.30;;
67500;SDS011;54349;52.528;19.760;2023-04-24T01:17:43;7.60;;;4.40;;
67500;SDS011;54349;52.528;19.760;2023-04-24T01:20:12;6.90;;;4.40;;
67500;SDS011;54349;52.528;19.760;2023-04-24T01:22:42;7.50;;;4.50;;
67500;SDS011;54349;52.528;19.760;2023-04-24T01:25:10;6.90;;;4.40;;
67500;SDS011;54349;52.528;19.760;2023-04-24T01:27:38;6.00;;;3.90;;
67500;SDS011;54349;52.528;19.760;2023-04-24T01:30:07;8.20;;;4.40;;
67500;SDS011;54349;52.528;19.760;2023-04-24T01:32:37;7.10;;;4.10;;
67500;SDS011;54349;52.528;19.760;2023-04-24T01:35:07;6.40;;;4.30;;
67500;SDS011;54349;52.528;19.760;2023-04-24T01:37:36;6.20;;;4.30;;
67500;SDS011;54349;52.528;19.760;2023-04-24T01:40:07;7.90;;;4.60;;
67500;SDS011;54349;52.528;19.760;2023-04-24T01:42:36;7.00;;;4.40;;
67500;SDS011;54349;52.528;19.760;2023-04-24T01:45:05;6.80;;;4.30;;
67500;SDS011;54349;52.528;19.760;2023-04-24T01:47:34;6.60;;;4.10;;
67500;SDS011;54349;52.528;19.760;2023-04-24T01:50:04;6.80;;;4.00;;
67500;SDS011;54349;52.528;19.760;2023-04-24T01:52:47;7.10;;;4.30;;
67500;SDS011;54349;52.528;19.760;2023-04-24T01:55:16;6.60;;;4.30;;
67500;SDS011;54349;52.528;19.760;2023-04-24T01:57:45;7.00;;;4.30;;
67500;SDS011;54349;52.528;19.760;2023-04-24T02:00:14;6.30;;;4.10;;
67500;SDS011;54349;52.528;19.760;2023-04-24T02:02:44;6.90;;;4.30;;
67500;SDS011;54349;52.528;19.760;2023-04-24T02:05:15;6.60;;;4.00;;
67500;SDS011;54349;52.528;19.760;2023-04-24T02:07:43;6.50;;;4.30;;
67500;SDS011;54349;52.528;19.760;2023-04-24T02:10:11;7.50;;;4.10;;
67500;SDS011;54349;52.528;19.760;2023-04-24T02:12:42;7.20;;;4.10;;
67500;SDS011;54349;52.528;19.760;2023-04-24T02:15:11;8.40;;;4.60;;
67500;SDS011;54349;52.528;19.760;2023-04-24T02:17:40;6.70;;;4.10;;
67500;SDS011;54349;52.528;19.760;2023-04-24T02:20:08;6.60;;;4.20;;
67500;SDS011;54349;52.528;19.760;2023-04-24T02:22:38;6.70;;;4.10;;
67500;SDS011;54349;52.528;19.760;2023-04-24T02:25:07;6.60;;;4.20;;
67500;SDS011;54349;52.528;19.760;2023-04-24T02:27:36;7.60;;;4.40;;
67500;SDS011;54349;52.528;19.760;2023-04-24T02:30:06;6.80;;;4.40;;
67500;SDS011;54349;52.528;19.760;2023-04-24T02:32:36;7.30;;;4.10;;
67500;SDS011;54349;52.528;19.760;2023-04-24T02:35:05;6.80;;;4.40;;
67500;SDS011;54349;52.528;19.760;2023-04-24T02:37:34;7.20;;;4.20;;
67500;SDS011;54349;52.528;19.760;2023-04-24T02:40:03;6.80;;;4.50;;
67500;SDS011;54349;52.528;19.760;2023-04-24T02:42:33;6.90;;;4.10;;
67500;SDS011;54349;52.528;19.760;2023-04-24T02:45:01;6.10;;;3.90;;
67500;SDS011;54349;52.528;19.760;2023-04-24T02:47:30;7.40;;;4.40;;
67500;SDS011;54349;52.528;19.760;2023-04-24T02:50:01;6.90;;;4.50;;
67500;SDS011;54349;52.528;19.760;2023-04-24T02:52:30;6.30;;;4.10;;
67500;SDS011;54349;52.528;19.760;2023-04-24T02:54:58;6.30;;;4.00;;
67500;SDS011;54349;52.528;19.760;2023-04-24T02:57:27;6.70;;;4.40;;
67500;SDS011;54349;52.528;19.760;2023-04-24T02:59:56;6.30;;;4.20;;
67500;SDS011;54349;52.528;19.760;2023-04-24T03:02:24;6.80;;;4.40;;
67500;SDS011;54349;52.528;19.760;2023-04-24T03:04:52;8.40;;;4.40;;
67500;SDS011;54349;52.528;19.760;2023-04-24T03:07:21;6.40;;;4.20;;
67500;SDS011;54349;52.528;19.760;2023-04-24T03:09:49;6.80;;;4.20;;
67500;SDS011;54349;52.528;19.760;2023-04-24T03:12:17;7.60;;;4.20;;
67500;SDS011;54349;52.528;19.760;2023-04-24T03:14:45;6.80;;;4.20;;
67500;SDS011;54349;52.528;19.760;2023-04-24T03:17:14;6.40;;;4.10;;
67500;SDS011;54349;52.528;19.760;2023-04-24T03:19:42;5.90;;;4.00;;
67500;SDS011;54349;52.528;19.760;2023-04-24T03:22:11;7.30;;;4.50;;
67500;SDS011;54349;52.528;19.760;2023-04-24T03:24:40;8.40;;;4.40;;
67500;SDS011;54349;52.528;19.760;2023-04-24T03:27:08;7.30;;;4.60;;
67500;SDS011;54349;52.528;19.760;2023-04-24T03:30:07;7.40;;;4.10;;
67500;SDS011;54349;52.528;19.760;2023-04-24T03:32:44;6.70;;;4.30;;
67500;SDS011;54349;52.528;19.760;2023-04-24T03:35:13;6.80;;;4.20;;
67500;SDS011;54349;52.528;19.760;2023-04-24T03:37:42;5.60;;;3.90;;
67500;SDS011;54349;52.528;19.760;2023-04-24T03:40:28;6.00;;;4.20;;
67500;SDS011;54349;52.528;19.760;2023-04-24T03:42:58;6.80;;;4.20;;
67500;SDS011;54349;52.528;19.760;2023-04-24T03:45:26;6.60;;;4.00;;
67500;SDS011;54349;52.528;19.760;2023-04-24T03:47:55;6.60;;;4.20;;
67500;SDS011;54349;52.528;19.760;2023-04-24T03:50:23;6.40;;;3.90;;
67500;SDS011;54349;52.528;19.760;2023-04-24T03:52:51;6.50;;;4.00;;
67500;SDS011;54349;52.528;19.760;2023-04-24T03:55:30;6.80;;;4.10;;
67500;SDS011;54349;52.528;19.760;2023-04-24T03:57:58;5.90;;;3.90;;
67500;SDS011;54349;52.528;19.760;2023-04-24T04:00:26;7.70;;;4.40;;
67500;SDS011;54349;52.528;19.760;2023-04-24T04:03:03;6.80;;;4.20;;
67500;SDS011;54349;52.528;19.760;2023-04-24T04:05:32;6.80;;;4.10;;
67500;SDS011;54349;52.528;19.760;2023-04-24T04:08:00;7.20;;;4.40;;
67500;SDS011;54349;52.528;19.760;2023-04-24T04:10:29;7.50;;;4.30;;
67500;SDS011;54349;52.528;19.760;2023-04-24T04:12:57;6.80;;;4.00;;
67500;SDS011;54349;52.528;19.760;2023-04-24T04:15:25;6.10;;;4.20;;
67500;SDS011;54349;52.528;19.760;2023-04-24T04:17:54;6.80;;;4.10;;
67500;SDS011;54349;52.528;19.760;2023-04-24T04:20:23;7.80;;;4.30;;
67500;SDS011;54349;52.528;19.760;2023-04-24T04:22:52;7.10;;;4.60;;
67500;SDS011;54349;52.528;19.760;2023-04-24T04:25:25;7.30;;;4.20;;
67500;SDS011;54349;52.528;19.760;2023-04-24T04:27:54;7.30;;;4.80;;
67500;SDS011;54349;52.528;19.760;2023-04-24T04:30:22;7.10;;;4.50;;
67500;SDS011;54349;52.528;19.760;2023-04-24T04:32:59;7.60;;;4.70;;
67500;SDS011;54349;52.528;19.760;2023-04-24T04:35:28;6.60;;;4.40;;
67500;SDS011;54349;52.528;19.760;2023-04-24T04:37:58;7.90;;;4.50;;
67500;SDS011;54349;52.528;19.760;2023-04-24T04:40:46;7.30;;;4.80;;
67500;SDS011;54349;52.528;19.760;2023-04-24T04:43:15;7.70;;;4.90;;
67500;SDS011;54349;52.528;19.760;2023-04-24T04:45:48;7.20;;;4.80;;
67500;SDS011;54349;52.528;19.760;2023-04-24T04:48:26;7.40;;;4.60;;
67500;SDS011;54349;52.528;19.760;2023-04-24T04:50:55;7.00;;;4.20;;
67500;SDS011;54349;52.528;19.760;2023-04-24T04:53:24;7.20;;;4.60;;
67500;SDS011;54349;52.528;19.760;2023-04-24T04:55:53;7.20;;;4.50;;
67500;SDS011;54349;52.528;19.760;2023-04-24T04:58:26;7.70;;;4.50;;
67500;SDS011;54349;52.528;19.760;2023-04-24T05:00:58;7.80;;;4.70;;
67500;SDS011;54349;52.528;19.760;2023-04-24T05:03:40;6.90;;;4.60;;
67500;SDS011;54349;52.528;19.760;2023-04-24T05:06:10;7.70;;;4.50;;
67500;SDS011;54349;52.528;19.760;2023-04-24T05:08:39;7.20;;;4.30;;
67500;SDS011;54349;52.528;19.760;2023-04-24T05:11:17;7.50;;;4.40;;
67500;SDS011;54349;52.528;19.760;2023-04-24T05:13:47;7.40;;;4.70;;
67500;SDS011;54349;52.528;19.760;2023-04-24T05:16:19;7.40;;;4.60;;
67500;SDS011;54349;52.528;19.760;2023-04-24T05:18:47;8.10;;;4.40;;
67500;SDS011;54349;52.528;19.760;2023-04-24T05:21:18;9.00;;;4.70;;
67500;SDS011;54349;52.528;19.760;2023-04-24T05:23:52;9.30;;;4.70;;
67500;SDS011;54349;52.528;19.760;2023-04-24T05:26:31;9.00;;;4.50;;
67500;SDS011;54349;52.528;19.760;2023-04-24T05:29:03;10.00;;;4.90;;
67500;SDS011;54349;52.528;19.760;2023-04-24T05:31:32;11.60;;;4.90;;
67500;SDS011;54349;52.528;19.760;2023-04-24T05:34:01;10.70;;;5.30;;
67500;SDS011;54349;52.528;19.760;2023-04-24T05:36:30;9.10;;;4.90;;
67500;SDS011;54349;52.528;19.760;2023-04-24T05:39:03;9.90;;;5.00;;
67500;SDS011;54349;52.528;19.760;2023-04-24T05:41:36;7.70;;;4.60;;
67500;SDS011;54349;52.528;19.760;2023-04-24T05:44:07;9.30;;;5.10;;
67500;SDS011;54349;52.528;19.760;2023-04-24T05:46:37;9.40;;;4.90;;
67500;SDS011;54349;52.528;19.760;2023-04-24T05:49:06;9.90;;;4.50;;
67500;SDS011;54349;52.528;19.760;2023-04-24T05:51:36;9.80;;;4.80;;
67500;SDS011;54349;52.528;19.760;2023-04-24T05:54:04;9.70;;;4.90;;
67500;SDS011;54349;52.528;19.760;2023-04-24T05:56:33;10.30;;;5.00;;
67500;SDS011;54349;52.528;19.760;2023-04-24T05:59:03;8.80;;;5.00;;
67500;SDS011;54349;52.528;19.760;2023-04-24T06:01:32;9.00;;;5.10;;
67500;SDS011;54349;52.528;19.760;2023-04-24T06:04:12;9.30;;;4.80;;
67500;SDS011;54349;52.528;19.760;2023-04-24T06:06:43;8.40;;;4.20;;
67500;SDS011;54349;52.528;19.760;2023-04-24T06:09:12;10.20;;;4.70;;
67500;SDS011;54349;52.528;19.760;2023-04-24T06:11:40;7.90;;;4.80;;
67500;SDS011;54349;52.528;19.760;2023-04-24T06:14:09;10.50;;;4.60;;
67500;SDS011;54349;52.528;19.760;2023-04-24T06:16:37;9.50;;;4.90;;
67500;SDS011;54349;52.528;19.760;2023-04-24T06:19:15;10.00;;;4.70;;
67500;SDS011;54349;52.528;19.760;2023-04-24T06:21:43;10.20;;;5.10;;
67500;SDS011;54349;52.528;19.760;2023-04-24T06:24:14;9.80;;;4.70;;
67500;SDS011;54349;52.528;19.760;2023-04-24T06:26:44;7.50;;;5.10;;
67500;SDS011;54349;52.528;19.760;2023-04-24T06:29:12;10.20;;;5.40;;
67500;SDS011;54349;52.528;19.760;2023-04-24T06:31:40;11.60;;;5.20;;
67500;SDS011;54349;52.528;19.760;2023-04-24T06:34:10;9.80;;;5.00;;
67500;SDS011;54349;52.528;19.760;2023-04-24T06:36:38;11.80;;;5.40;;
67500;SDS011;54349;52.528;19.760;2023-04-24T06:39:06;10.00;;;4.90;;
67500;SDS011;54349;52.528;19.760;2023-04-24T06:41:35;10.70;;;5.10;;
67500;SDS011;54349;52.528;19.760;2023-04-24T06:44:03;7.70;;;5.00;;
67500;SDS011;54349;52.528;19.760;2023-04-24T06:46:31;8.80;;;4.80;;
67500;SDS011;54349;52.528;19.760;2023-04-24T06:49:00;9.60;;;5.40;;
67500;SDS011;54349;52.528;19.760;2023-04-24T06:51:28;8.90;;;5.00;;
67500;SDS011;54349;52.528;19.760;2023-04-24T06:53:56;10.40;;;4.80;;
67500;SDS011;54349;52.528;19.760;2023-04-24T06:56:25;10.40;;;5.10;;
67500;SDS011;54349;52.528;19.760;2023-04-24T06:58:53;7.30;;;4.50;;
67500;SDS011;54349;52.528;19.760;2023-04-24T07:01:22;7.90;;;4.90;;
67500;SDS011;54349;52.528;19.760;2023-04-24T07:03:51;7.70;;;4.60;;
67500;SDS011;54349;52.528;19.760;2023-04-24T07:06:20;9.00;;;5.00;;
67500;SDS011;54349;52.528;19.760;2023-04-24T07:08:50;8.80;;;5.00;;
67500;SDS011;54349;52.528;19.760;2023-04-24T07:11:18;8.10;;;5.00;;
67500;SDS011;54349;52.528;19.760;2023-04-24T07:13:47;7.60;;;4.80;;
67500;SDS011;54349;52.528;19.760;2023-04-24T07:16:15;8.40;;;4.60;;
67500;SDS011;54349;52.528;19.760;2023-04-24T07:18:44;8.40;;;4.70;;
67500;SDS011;54349;52.528;19.760;2023-04-24T07:21:12;8.50;;;4.80;;
67500;SDS011;54349;52.528;19.760;2023-04-24T07:23:40;8.90;;;5.40;;
67500;SDS011;54349;52.528;19.760;2023-04-24T07:26:09;7.80;;;5.10;;
67500;SDS011;54349;52.528;19.760;2023-04-24T07:28:37;7.60;;;4.90;;
67500;SDS011;54349;52.528;19.760;2023-04-24T07:31:07;8.50;;;4.90;;
67500;SDS011;54349;52.528;19.760;2023-04-24T07:33:36;7.30;;;4.20;;
67500;SDS011;54349;52.528;19.760;2023-04-24T07:36:04;6.90;;;4.40;;
67500;SDS011;54349;52.528;19.760;2023-04-24T07:38:33;8.30;;;4.90;;
67500;SDS011;54349;52.528;19.760;2023-04-24T07:41:01;7.60;;;4.50;;
67500;SDS011;54349;52.528;19.760;2023-04-24T07:43:29;9.40;;;4.90;;
67500;SDS011;54349;52.528;19.760;2023-04-24T07:45:57;7.10;;;4.40;;
67500;SDS011;54349;52.528;19.760;2023-04-24T07:48:25;8.60;;;5.20;;
67500;SDS011;54349;52.528;19.760;2023-04-24T07:50:54;8.20;;;4.70;;
67500;SDS011;54349;52.528;19.760;2023-04-24T07:53:22;10.50;;;4.80;;
67500;SDS011;54349;52.528;19.760;2023-04-24T07:55:51;7.90;;;4.40;;
67500;SDS011;54349;52.528;19.760;2023-04-24T07:58:19;6.50;;;4.40;;
67500;SDS011;54349;52.528;19.760;2023-04-24T08:00:47;6.30;;;4.40;;
67500;SDS011;54349;52.528;19.760;2023-04-24T08:03:15;9.10;;;4.50;;
67500;SDS011;54349;52.528;19.760;2023-04-24T08:05:47;6.50;;;4.20;;
67500;SDS011;54349;52.528;19.760;2023-04-24T08:08:15;6.80;;;4.30;;
67500;SDS011;54349;52.528;19.760;2023-04-24T08:10:44;7.10;;;4.50;;
67500;SDS011;54349;52.528;19.760;2023-04-24T08:13:12;6.50;;;4.00;;
67500;SDS011;54349;52.528;19.760;2023-04-24T08:15:40;7.10;;;4.40;;
67500;SDS011;54349;52.528;19.760;2023-04-24T08:18:08;7.00;;;4.10;;
67500;SDS011;54349;52.528;19.760;2023-04-24T08:20:39;8.00;;;4.30;;
67500;SDS011;54349;52.528;19.760;2023-04-24T08:23:08;6.90;;;4.10;;
67500;SDS011;54349;52.528;19.760;2023-04-24T08:25:36;8.10;;;4.20;;
67500;SDS011;54349;52.528;19.760;2023-04-24T08:28:06;5.80;;;4.30;;
67500;SDS011;54349;52.528;19.760;2023-04-24T08:30:34;6.80;;;4.30;;
67500;SDS011;54349;52.528;19.760;2023-04-24T08:33:02;8.50;;;4.20;;
67500;SDS011;54349;52.528;19.760;2023-04-24T08:35:30;6.10;;;3.90;;
67500;SDS011;54349;52.528;19.760;2023-04-24T08:37:59;6.60;;;4.20;;
67500;SDS011;54349;52.528;19.760;2023-04-24T08:40:28;6.10;;;3.80;;
67500;SDS011;54349;52.528;19.760;2023-04-24T08:42:59;6.70;;;3.90;;
67500;SDS011;54349;52.528;19.760;2023-04-24T08:45:28;7.60;;;4.30;;
67500;SDS011;54349;52.528;19.760;2023-04-24T08:47:57;5.70;;;3.90;;
67500;SDS011;54349;52.528;19.760;2023-04-24T08:50:26;6.80;;;4.00;;
67500;SDS011;54349;52.528;19.760;2023-04-24T08:52:57;7.00;;;3.60;;
67500;SDS011;54349;52.528;19.760;2023-04-24T08:55:25;7.20;;;3.90;;
67500;SDS011;54349;52.528;19.760;2023-04-24T08:57:54;7.10;;;3.90;;
67500;SDS011;54349;52.528;19.760;2023-04-24T09:00:22;5.90;;;3.70;;
67500;SDS011;54349;52.528;19.760;2023-04-24T09:02:53;6.30;;;4.10;;
67500;SDS011;54349;52.528;19.760;2023-04-24T09:05:22;5.80;;;3.70;;
67500;SDS011;54349;52.528;19.760;2023-04-24T09:07:56;6.00;;;4.00;;
67500;SDS011;54349;52.528;19.760;2023-04-24T09:10:25;5.60;;;3.90;;
67500;SDS011;54349;52.528;19.760;2023-04-24T09:12:54;6.10;;;4.10;;
67500;SDS011;54349;52.528;19.760;2023-04-24T09:15:24;6.00;;;3.90;;
67500;SDS011;54349;52.528;19.760;2023-04-24T09:17:53;6.00;;;3.70;;
67500;SDS011;54349;52.528;19.760;2023-04-24T09:20:21;6.40;;;4.10;;
67500;SDS011;54349;52.528;19.760;2023-04-24T09:22:54;5.90;;;3.90;;
67500;SDS011;54349;52.528;19.760;2023-04-24T09:25:31;7.70;;;4.20;;
67500;SDS011;54349;52.528;19.760;2023-04-24T09:28:04;5.80;;;3.80;;
67500;SDS011;54349;52.528;19.760;2023-04-24T09:30:34;6.40;;;4.00;;
67500;SDS011;54349;52.528;19.760;2023-04-24T09:33:15;5.40;;;3.50;;
67500;SDS011;54349;52.528;19.760;2023-04-24T09:35:51;5.00;;;3.50;;
67500;SDS011;54349;52.528;19.760;2023-04-24T09:41:05;5.20;;;3.40;;
67500;SDS011;54349;52.528;19.760;2023-04-24T09:43:35;5.00;;;3.40;;
67500;SDS011;54349;52.528;19.760;2023-04-24T09:46:07;5.30;;;3.80;;
67500;SDS011;54349;52.528;19.760;2023-04-24T09:48:37;5.40;;;3.70;;
67500;SDS011;54349;52.528;19.760;2023-04-24T09:51:06;6.10;;;3.60;;
67500;SDS011;54349;52.528;19.760;2023-04-24T09:53:35;5.40;;;3.50;;
67500;SDS011;54349;52.528;19.760;2023-04-24T09:56:08;6.80;;;3.80;;
67500;SDS011;54349;52.528;19.760;2023-04-24T09:58:37;6.10;;;3.50;;
67500;SDS011;54349;52.528;19.760;2023-04-24T10:01:06;5.00;;;3.40;;
67500;SDS011;54349;52.528;19.760;2023-04-24T10:03:35;5.80;;;3.80;;
67500;SDS011;54349;52.528;19.760;2023-04-24T10:06:04;5.40;;;3.70;;
67500;SDS011;54349;52.528;19.760;2023-04-24T10:11:08;5.10;;;3.20;;
67500;SDS011;54349;52.528;19.760;2023-04-24T10:13:39;6.60;;;3.80;;
67500;SDS011;54349;52.528;19.760;2023-04-24T10:16:09;7.90;;;3.70;;
67500;SDS011;54349;52.528;19.760;2023-04-24T10:18:39;5.80;;;3.60;;
67500;SDS011;54349;52.528;19.760;2023-04-24T10:21:07;5.80;;;3.70;;
67500;SDS011;54349;52.528;19.760;2023-04-24T10:23:36;5.40;;;3.30;;
67500;SDS011;54349;52.528;19.760;2023-04-24T10:26:05;6.50;;;3.90;;
67500;SDS011;54349;52.528;19.760;2023-04-24T10:28:36;6.30;;;3.50;;
67500;SDS011;54349;52.528;19.760;2023-04-24T10:31:04;6.20;;;3.30;;
67500;SDS011;54349;52.528;19.760;2023-04-24T10:33:33;4.90;;;3.40;;
67500;SDS011;54349;52.528;19.760;2023-04-24T10:36:02;5.20;;;3.40;;
67500;SDS011;54349;52.528;19.760;2023-04-24T10:38:31;5.80;;;3.70;;
67500;SDS011;54349;52.528;19.760;2023-04-24T10:41:10;5.50;;;3.70;;
67500;SDS011;54349;52.528;19.760;2023-04-24T10:43:44;5.60;;;3.30;;
67500;SDS011;54349;52.528;19.760;2023-04-24T10:46:19;5.80;;;3.70;;
67500;SDS011;54349;52.528;19.760;2023-04-24T10:48:56;6.00;;;3.70;;
67500;SDS011;54349;52.528;19.760;2023-04-24T10:59:51;5.00;;;3.40;;
67500;SDS011;54349;52.528;19.760;2023-04-24T11:02:38;5.20;;;3.50;;
67500;SDS011;54349;52.528;19.760;2023-04-24T11:05:08;5.30;;;3.30;;
67500;SDS011;54349;52.528;19.760;2023-04-24T11:11:08;5.90;;;3.70;;
67500;SDS011;54349;52.528;19.760;2023-04-24T11:16:43;5.70;;;3.50;;
67500;SDS011;54349;52.528;19.760;2023-04-24T11:32:33;4.80;;;3.20;;
67500;SDS011;54349;52.528;19.760;2023-04-24T11:35:13;5.40;;;3.50;;
67500;SDS011;54349;52.528;19.760;2023-04-24T11:37:48;5.40;;;3.50;;
67500;SDS011;54349;52.528;19.760;2023-04-24T11:40:21;5.00;;;3.50;;
67500;SDS011;54349;52.528;19.760;2023-04-24T11:42:52;5.20;;;3.20;;
67500;SDS011;54349;52.528;19.760;2023-04-24T11:45:26;5.40;;;3.60;;
67500;SDS011;54349;52.528;19.760;2023-04-24T11:47:55;5.40;;;3.60;;
67500;SDS011;54349;52.528;19.760;2023-04-24T11:50:26;5.40;;;3.40;;
67500;SDS011;54349;52.528;19.760;2023-04-24T11:52:56;5.50;;;3.50;;
67500;SDS011;54349;52.528;19.760;2023-04-24T11:55:26;5.10;;;3.20;;
67500;SDS011;54349;52.528;19.760;2023-04-24T11:57:58;6.60;;;3.60;;
67500;SDS011;54349;52.528;19.760;2023-04-24T12:00:31;4.90;;;3.30;;
67500;SDS011;54349;52.528;19.760;2023-04-24T12:03:10;4.70;;;3.20;;
67500;SDS011;54349;52.528;19.760;2023-04-24T12:05:40;5.20;;;3.40;;
67500;SDS011;54349;52.528;19.760;2023-04-24T12:08:09;4.80;;;3.10;;
67500;SDS011;54349;52.528;19.760;2023-04-24T12:10:37;4.40;;;3.10;;
67500;SDS011;54349;52.528;19.760;2023-04-24T12:13:05;5.40;;;3.40;;
67500;SDS011;54349;52.528;19.760;2023-04-24T12:15:39;5.40;;;3.40;;
67500;SDS011;54349;52.528;19.760;2023-04-24T12:18:12;5.10;;;3.40;;
67500;SDS011;54349;52.528;19.760;2023-04-24T12:20:41;5.30;;;3.40;;
67500;SDS011;54349;52.528;19.760;2023-04-24T12:23:09;5.30;;;3.50;;
67500;SDS011;54349;52.528;19.760;2023-04-24T12:25:38;6.00;;;3.40;;
67500;SDS011;54349;52.528;19.760;2023-04-24T12:28:12;6.00;;;3.50;;
67500;SDS011;54349;52.528;19.760;2023-04-24T12:30:48;4.50;;;3.30;;
67500;SDS011;54349;52.528;19.760;2023-04-24T12:33:18;5.40;;;3.50;;
67500;SDS011;54349;52.528;19.760;2023-04-24T12:35:51;5.30;;;3.30;;
67500;SDS011;54349;52.528;19.760;2023-04-24T12:38:26;5.50;;;3.40;;
67500;SDS011;54349;52.528;19.760;2023-04-24T12:41:07;4.70;;;3.20;;
67500;SDS011;54349;52.528;19.760;2023-04-24T12:43:38;5.00;;;3.30;;
67500;SDS011;54349;52.528;19.760;2023-04-24T12:46:06;4.60;;;3.30;;
67500;SDS011;54349;52.528;19.760;2023-04-24T12:48:35;5.20;;;3.20;;
67500;SDS011;54349;52.528;19.760;2023-04-24T12:51:03;5.10;;;3.40;;
67500;SDS011;54349;52.528;19.760;2023-04-24T12:53:32;5.50;;;3.50;;
67500;SDS011;54349;52.528;19.760;2023-04-24T12:56:01;5.20;;;3.50;;
67500;SDS011;54349;52.528;19.760;2023-04-24T12:58:29;5.60;;;3.30;;
67500;SDS011;54349;52.528;19.760;2023-04-24T13:00:58;4.20;;;3.20;;
67500;SDS011;54349;52.528;19.760;2023-04-24T13:03:26;5.00;;;3.10;;
67500;SDS011;54349;52.528;19.760;2023-04-24T13:05:55;5.30;;;3.40;;
67500;SDS011;54349;52.528;19.760;2023-04-24T13:08:23;5.10;;;3.30;;
67500;SDS011;54349;52.528;19.760;2023-04-24T13:10:51;5.60;;;3.30;;
67500;SDS011;54349;52.528;19.760;2023-04-24T13:13:20;4.90;;;3.20;;
67500;SDS011;54349;52.528;19.760;2023-04-24T13:15:48;4.70;;;3.30;;
67500;SDS011;54349;52.528;19.760;2023-04-24T13:18:16;5.10;;;3.40;;
67500;SDS011;54349;52.528;19.760;2023-04-24T13:20:56;5.50;;;3.40;;
67500;SDS011;54349;52.528;19.760;2023-04-24T13:23:24;5.50;;;3.50;;
67500;SDS011;54349;52.528;19.760;2023-04-24T13:25:53;4.40;;;3.20;;
67500;SDS011;54349;52.528;19.760;2023-04-24T13:28:25;4.90;;;3.30;;
67500;SDS011;54349;52.528;19.760;2023-04-24T13:30:54;5.20;;;3.30;;
67500;SDS011;54349;52.528;19.760;2023-04-24T13:33:22;4.30;;;3.10;;
67500;SDS011;54349;52.528;19.760;2023-04-24T13:35:51;5.60;;;3.20;;
67500;SDS011;54349;52.528;19.760;2023-04-24T13:38:19;5.30;;;3.50;;
67500;SDS011;54349;52.528;19.760;2023-04-24T13:40:49;7.30;;;3.40;;
67500;SDS011;54349;52.528;19.760;2023-04-24T13:43:17;6.20;;;3.40;;
67500;SDS011;54349;52.528;19.760;2023-04-24T13:45:45;5.10;;;3.50;;
67500;SDS011;54349;52.528;19.760;2023-04-24T13:48:14;4.70;;;3.60;;
67500;SDS011;54349;52.528;19.760;2023-04-24T13:50:45;5.80;;;3.30;;
67500;SDS011;54349;52.528;19.760;2023-04-24T13:53:17;5.60;;;3.30;;
67500;SDS011;54349;52.528;19.760;2023-04-24T13:55:45;6.90;;;3.80;;
67500;SDS011;54349;52.528;19.760;2023-04-24T13:58:13;5.40;;;3.60;;
67500;SDS011;54349;52.528;19.760;2023-04-24T14:00:43;5.30;;;3.50;;
67500;SDS011;54349;52.528;19.760;2023-04-24T14:03:11;6.00;;;3.50;;
67500;SDS011;54349;52.528;19.760;2023-04-24T14:05:40;4.70;;;3.30;;
67500;SDS011;54349;52.528;19.760;2023-04-24T14:08:08;5.40;;;3.50;;
67500;SDS011;54349;52.528;19.760;2023-04-24T14:10:40;4.60;;;3.30;;
67500;SDS011;54349;52.528;19.760;2023-04-24T14:13:08;5.70;;;3.60;;
67500;SDS011;54349;52.528;19.760;2023-04-24T14:15:36;4.80;;;3.20;;
67500;SDS011;54349;52.528;19.760;2023-04-24T14:18:04;5.10;;;3.20;;
67500;SDS011;54349;52.528;19.760;2023-04-24T14:20:33;5.20;;;3.20;;
67500;SDS011;54349;52.528;19.760;2023-04-24T14:23:01;4.70;;;3.50;;
67500;SDS011;54349;52.528;19.760;2023-04-24T14:25:31;4.70;;;3.30;;
67500;SDS011;54349;52.528;19.760;2023-04-24T14:27:59;5.90;;;3.60;;
67500;SDS011;54349;52.528;19.760;2023-04-24T14:30:27;4.90;;;3.30;;
67500;SDS011;54349;52.528;19.760;2023-04-24T14:32:56;4.80;;;3.40;;
67500;SDS011;54349;52.528;19.760;2023-04-24T14:35:25;5.10;;;3.30;;
67500;SDS011;54349;52.528;19.760;2023-04-24T14:37:55;4.60;;;3.10;;
67500;SDS011;54349;52.528;19.760;2023-04-24T14:40:23;4.30;;;3.10;;
67500;SDS011;54349;52.528;19.760;2023-04-24T14:43:12;4.40;;;3.40;;
67500;SDS011;54349;52.528;19.760;2023-04-24T14:45:40;5.10;;;3.00;;
67500;SDS011;54349;52.528;19.760;2023-04-24T14:48:09;4.70;;;3.10;;
67500;SDS011;54349;52.528;19.760;2023-04-24T14:50:39;4.90;;;3.30;;
67500;SDS011;54349;52.528;19.760;2023-04-24T14:53:08;4.70;;;3.10;;
67500;SDS011;54349;52.528;19.760;2023-04-24T14:55:37;4.70;;;3.20;;
67500;SDS011;54349;52.528;19.760;2023-04-24T14:58:05;5.10;;;3.20;;
67500;SDS011;54349;52.528;19.760;2023-04-24T15:00:34;4.60;;;3.00;;
67500;SDS011;54349;52.528;19.760;2023-04-24T15:03:02;4.60;;;3.10;;
67500;SDS011;54349;52.528;19.760;2023-04-24T15:05:30;4.90;;;3.20;;
67500;SDS011;54349;52.528;19.760;2023-04-24T15:07:59;5.60;;;3.10;;
67500;SDS011;54349;52.528;19.760;2023-04-24T15:10:27;4.30;;;3.00;;
67500;SDS011;54349;52.528;19.760;2023-04-24T15:12:57;4.60;;;3.20;;
67500;SDS011;54349;52.528;19.760;2023-04-24T15:15:26;4.80;;;3.30;;
67500;SDS011;54349;52.528;19.760;2023-04-24T15:17:54;6.20;;;3.40;;
67500;SDS011;54349;52.528;19.760;2023-04-24T15:20:23;4.50;;;3.10;;
67500;SDS011;54349;52.528;19.760;2023-04-24T15:22:51;4.90;;;3.30;;